sensor_id;sensor_type;location;lat;lon;timestamp;P1;durP1;ratioP1;P2;durP2;ratioP2
17261;SDS011;9873;52.236;21.002;2023-05-23T00:04:27;4.72;;;3.42;;
17261;SDS011;9873;52.236;21.002;2023-05-23T00:14:30;6.50;;;4.00;;
17261;SDS011;9873;52.236;21.002;2023-05-23T00:24:44;5.53;;;3.75;;
17261;SDS011;9873;52.236;21.002;2023-05-23T00:34:57;7.97;;;4.30;;
17261;SDS011;9873;52.236;21.002;2023-05-23T00:45:02;6.82;;;3.63;;
17261;SDS011;9873;52.236;21.002;2023-05-23T00:55:05;5.28;;;3.55;;
17261;SDS011;9873;52.236;21.002;2023-05-23T01:05:09;6.95;;;4.30;;
17261;SDS011;9873;52.236;21.002;2023-05-23T01:15:15;7.15;;;4.63;;
17261;SDS011;9873;52.236;21.002;2023-05-23T01:25:27;5.43;;;4.10;;
17261;SDS011;9873;52.236;21.002;2023-05-23T01:35:44;6.78;;;3.70;;
17261;SDS011;9873;52.236;21.002;2023-05-23T01:45:47;5.70;;;3.60;;
17261;SDS011;9873;52.236;21.002;2023-05-23T01:55:54;5.13;;;3.88;;
17261;SDS011;9873;52.236;21.002;2023-05-23T02:05:59;8.57;;;4.50;;
17261;SDS011;9873;52.236;21.002;2023-05-23T02:16:04;6.65;;;3.60;;
17261;SDS011;9873;52.236;21.002;2023-05-23T02:26:08;7.72;;;4.15;;
17261;SDS011;9873;52.236;21.002;2023-05-23T02:36:11;9.20;;;4.90;;
17261;SDS011;9873;52.236;21.002;2023-05-23T02:46:16;10.38;;;4.75;;
17261;SDS011;9873;52.236;21.002;2023-05-23T02:56:18;6.40;;;3.75;;
17261;SDS011;9873;52.236;21.002;2023-05-23T03:06:23;6.97;;;4.68;;
17261;SDS011;9873;52.236;21.002;2023-05-23T03:16:27;5.57;;;3.72;;
17261;SDS011;9873;52.236;21.002;2023-05-23T03:26:32;8.38;;;4.10;;
17261;SDS011;9873;52.236;21.002;2023-05-23T03:36:34;4.50;;;3.20;;
17261;SDS011;9873;52.236;21.002;2023-05-23T03:46:39;7.07;;;5.10;;
17261;SDS011;9873;52.236;21.002;2023-05-23T03:56:42;9.07;;;4.22;;
17261;SDS011;9873;52.236;21.002;2023-05-23T04:06:44;4.45;;;3.95;;
17261;SDS011;9873;52.236;21.002;2023-05-23T04:16:50;7.18;;;4.07;;
17261;SDS011;9873;52.236;21.002;2023-05-23T04:26:53;10.40;;;4.60;;
17261;SDS011;9873;52.236;21.002;2023-05-23T04:36:59;3.80;;;3.40;;
17261;SDS011;9873;52.236;21.002;2023-05-23T04:47:07;7.22;;;4.20;;
17261;SDS011;9873;52.236;21.002;2023-05-23T04:57:43;7.05;;;3.67;;
17261;SDS011;9873;52.236;21.002;2023-05-23T05:07:46;5.82;;;4.32;;
17261;SDS011;9873;52.236;21.002;2023-05-23T05:17:51;7.78;;;4.45;;
17261;SDS011;9873;52.236;21.002;2023-05-23T05:27:59;8.75;;;4.70;;
17261;SDS011;9873;52.236;21.002;2023-05-23T05:38:22;8.30;;;4.28;;
17261;SDS011;9873;52.236;21.002;2023-05-23T05:48:25;8.73;;;3.60;;
17261;SDS011;9873;52.236;21.002;2023-05-23T05:58:32;6.13;;;3.55;;
17261;SDS011;9873;52.236;21.002;2023-05-23T06:08:40;9.80;;;3.67;;
17261;SDS011;9873;52.236;21.002;2023-05-23T06:18:46;5.70;;;3.63;;
17261;SDS011;9873;52.236;21.002;2023-05-23T06:28:49;10.38;;;3.90;;
17261;SDS011;9873;52.236;21.002;2023-05-23T06:38:53;3.67;;;3.20;;
17261;SDS011;9873;52.236;21.002;2023-05-23T06:48:58;10.20;;;3.30;;
17261;SDS011;9873;52.236;21.002;2023-05-23T06:59:16;6.53;;;3.03;;
17261;SDS011;9873;52.236;21.002;2023-05-23T07:09:20;3.47;;;2.25;;
17261;SDS011;9873;52.236;21.002;2023-05-23T07:19:26;8.02;;;2.85;;
17261;SDS011;9873;52.236;21.002;2023-05-23T07:29:30;4.65;;;2.55;;
17261;SDS011;9873;52.236;21.002;2023-05-23T07:39:36;3.08;;;2.40;;
17261;SDS011;9873;52.236;21.002;2023-05-23T07:49:39;4.60;;;3.05;;
17261;SDS011;9873;52.236;21.002;2023-05-23T07:59:45;4.85;;;3.22;;
17261;SDS011;9873;52.236;21.002;2023-05-23T08:09:52;4.55;;;2.88;;
17261;SDS011;9873;52.236;21.002;2023-05-23T08:19:56;3.00;;;2.20;;
17261;SDS011;9873;52.236;21.002;2023-05-23T08:29:59;5.70;;;2.95;;
17261;SDS011;9873;52.236;21.002;2023-05-23T08:40:02;2.50;;;2.13;;
17261;SDS011;9873;52.236;21.002;2023-05-23T08:50:15;3.45;;;2.25;;
17261;SDS011;9873;52.236;21.002;2023-05-23T09:00:27;7.50;;;3.05;;
17261;SDS011;9873;52.236;21.002;2023-05-23T09:10:31;2.80;;;2.22;;
17261;SDS011;9873;52.236;21.002;2023-05-23T09:20:34;5.13;;;2.53;;
17261;SDS011;9873;52.236;21.002;2023-05-23T09:30:43;7.30;;;2.15;;
17261;SDS011;9873;52.236;21.002;2023-05-23T09:40:48;3.90;;;2.53;;
17261;SDS011;9873;52.236;21.002;2023-05-23T09:50:51;4.30;;;2.33;;
17261;SDS011;9873;52.236;21.002;2023-05-23T10:00:59;2.20;;;2.00;;
17261;SDS011;9873;52.236;21.002;2023-05-23T10:21:22;5.88;;;2.45;;
17261;SDS011;9873;52.236;21.002;2023-05-23T10:31:26;4.75;;;2.35;;
17261;SDS011;9873;52.236;21.002;2023-05-23T10:41:38;8.15;;;2.40;;
17261;SDS011;9873;52.236;21.002;2023-05-23T10:51:48;4.38;;;2.40;;
17261;SDS011;9873;52.236;21.002;2023-05-23T11:01:54;6.07;;;2.70;;
17261;SDS011;9873;52.236;21.002;2023-05-23T11:22:05;6.28;;;3.22;;
17261;SDS011;9873;52.236;21.002;2023-05-23T11:32:20;5.80;;;2.42;;
17261;SDS011;9873;52.236;21.002;2023-05-23T11:42:33;4.45;;;2.78;;
17261;SDS011;9873;52.236;21.002;2023-05-23T11:52:39;3.28;;;2.22;;
17261;SDS011;9873;52.236;21.002;2023-05-23T12:02:42;4.47;;;2.88;;
17261;SDS011;9873;52.236;21.002;2023-05-23T12:12:50;3.63;;;2.38;;
17261;SDS011;9873;52.236;21.002;2023-05-23T12:22:53;4.30;;;2.90;;
17261;SDS011;9873;52.236;21.002;2023-05-23T12:32:57;6.28;;;2.60;;
17261;SDS011;9873;52.236;21.002;2023-05-23T12:43:00;3.40;;;2.17;;
17261;SDS011;9873;52.236;21.002;2023-05-23T12:53:03;4.47;;;2.65;;
17261;SDS011;9873;52.236;21.002;2023-05-23T13:03:08;6.40;;;2.80;;
17261;SDS011;9873;52.236;21.002;2023-05-23T13:13:12;3.47;;;2.67;;
17261;SDS011;9873;52.236;21.002;2023-05-23T13:23:16;6.80;;;2.53;;
17261;SDS011;9873;52.236;21.002;2023-05-23T13:33:21;4.68;;;3.40;;
17261;SDS011;9873;52.236;21.002;2023-05-23T13:43:25;3.28;;;2.65;;
17261;SDS011;9873;52.236;21.002;2023-05-23T13:53:31;6.68;;;2.80;;
17261;SDS011;9873;52.236;21.002;2023-05-23T14:03:36;4.45;;;2.97;;
17261;SDS011;9873;52.236;21.002;2023-05-23T14:13:39;5.47;;;3.22;;
17261;SDS011;9873;52.236;21.002;2023-05-23T14:23:42;6.13;;;3.47;;
17261;SDS011;9873;52.236;21.002;2023-05-23T14:33:52;4.40;;;3.03;;
17261;SDS011;9873;52.236;21.002;2023-05-23T14:44:02;4.50;;;3.10;;
17261;SDS011;9873;52.236;21.002;2023-05-23T14:54:09;5.68;;;3.30;;
17261;SDS011;9873;52.236;21.002;2023-05-23T15:04:16;3.78;;;2.92;;
17261;SDS011;9873;52.236;21.002;2023-05-23T15:14:24;4.68;;;3.63;;
17261;SDS011;9873;52.236;21.002;2023-05-23T15:24:30;3.88;;;3.13;;
17261;SDS011;9873;52.236;21.002;2023-05-23T15:34:34;4.30;;;3.00;;
17261;SDS011;9873;52.236;21.002;2023-05-23T15:44:42;4.95;;;3.35;;
17261;SDS011;9873;52.236;21.002;2023-05-23T15:54:56;4.22;;;3.38;;
17261;SDS011;9873;52.236;21.002;2023-05-23T16:05:03;3.83;;;3.30;;
17261;SDS011;9873;52.236;21.002;2023-05-23T16:15:09;6.70;;;3.75;;
17261;SDS011;9873;52.236;21.002;2023-05-23T16:25:18;5.20;;;3.60;;
17261;SDS011;9873;52.236;21.002;2023-05-23T16:35:26;5.47;;;3.38;;
17261;SDS011;9873;52.236;21.002;2023-05-23T16:45:30;4.78;;;3.50;;
17261;SDS011;9873;52.236;21.002;2023-05-23T16:55:37;5.47;;;3.35;;
17261;SDS011;9873;52.236;21.002;2023-05-23T17:05:40;4.63;;;3.53;;
17261;SDS011;9873;52.236;21.002;2023-05-23T17:15:45;6.85;;;3.63;;
17261;SDS011;9873;52.236;21.002;2023-05-23T17:25:48;7.68;;;3.70;;
17261;SDS011;9873;52.236;21.002;2023-05-23T17:35:50;4.72;;;3.38;;
17261;SDS011;9873;52.236;21.002;2023-05-23T17:45:54;6.68;;;4.00;;
17261;SDS011;9873;52.236;21.002;2023-05-23T17:55:59;5.25;;;3.92;;
17261;SDS011;9873;52.236;21.002;2023-05-23T18:06:03;6.45;;;3.90;;
17261;SDS011;9873;52.236;21.002;2023-05-23T18:16:06;6.28;;;4.10;;
17261;SDS011;9873;52.236;21.002;2023-05-23T18:26:13;9.48;;;4.15;;
17261;SDS011;9873;52.236;21.002;2023-05-23T18:36:22;12.65;;;4.57;;
17261;SDS011;9873;52.236;21.002;2023-05-23T18:46:30;5.40;;;4.28;;
17261;SDS011;9873;52.236;21.002;2023-05-23T18:56:36;6.25;;;4.32;;
17261;SDS011;9873;52.236;21.002;2023-05-23T19:06:38;6.88;;;4.28;;
17261;SDS011;9873;52.236;21.002;2023-05-23T19:16:40;7.95;;;4.80;;
17261;SDS011;9873;52.236;21.002;2023-05-23T19:26:46;8.48;;;5.18;;
17261;SDS011;9873;52.236;21.002;2023-05-23T19:36:49;8.65;;;4.93;;
17261;SDS011;9873;52.236;21.002;2023-05-23T19:46:57;6.82;;;4.63;;
17261;SDS011;9873;52.236;21.002;2023-05-23T19:57:00;8.70;;;5.28;;
17261;SDS011;9873;52.236;21.002;2023-05-23T20:07:08;7.47;;;5.00;;
17261;SDS011;9873;52.236;21.002;2023-05-23T20:17:13;6.88;;;4.85;;
17261;SDS011;9873;52.236;21.002;2023-05-23T20:27:18;8.68;;;6.03;;
17261;SDS011;9873;52.236;21.002;2023-05-23T20:37:25;8.40;;;5.40;;
17261;SDS011;9873;52.236;21.002;2023-05-23T20:47:29;8.23;;;5.30;;
17261;SDS011;9873;52.236;21.002;2023-05-23T20:57:32;6.88;;;5.13;;
17261;SDS011;9873;52.236;21.002;2023-05-23T21:07:50;7.65;;;5.05;;
17261;SDS011;9873;52.236;21.002;2023-05-23T21:17:57;7.07;;;5.63;;
17261;SDS011;9873;52.236;21.002;2023-05-23T21:28:04;6.15;;;5.07;;
17261;SDS011;9873;52.236;21.002;2023-05-23T21:38:06;9.45;;;5.13;;
17261;SDS011;9873;52.236;21.002;2023-05-23T21:48:11;10.52;;;5.70;;
17261;SDS011;9873;52.236;21.002;2023-05-23T21:58:22;8.43;;;5.65;;
17261;SDS011;9873;52.236;21.002;2023-05-23T22:08:33;6.57;;;4.50;;
17261;SDS011;9873;52.236;21.002;2023-05-23T22:18:37;7.35;;;5.18;;
17261;SDS011;9873;52.236;21.002;2023-05-23T22:28:58;8.63;;;5.75;;
17261;SDS011;9873;52.236;21.002;2023-05-23T22:39:03;8.80;;;5.13;;
17261;SDS011;9873;52.236;21.002;2023-05-23T22:49:09;7.78;;;5.32;;
17261;SDS011;9873;52.236;21.002;2023-05-23T22:59:12;7.28;;;5.65;;
17261;SDS011;9873;52.236;21.002;2023-05-23T23:09:19;7.57;;;4.82;;
17261;SDS011;9873;52.236;21.002;2023-05-23T23:19:21;13.10;;;5.82;;
17261;SDS011;9873;52.236;21.002;2023-05-23T23:29:24;12.38;;;6.10;;
17261;SDS011;9873;52.236;21.002;2023-05-23T23:39:28;8.25;;;5.28;;
17261;SDS011;9873;52.236;21.002;2023-05-23T23:49:33;7.90;;;5.68;;
17261;SDS011;9873;52.236;21.002;2023-05-23T23:59:40;9.13;;;5.88;;
